Terminal Aerodrome Forecast
Issued by NWS

Home | Current Version | Previous Version | Text Only | Print | Product List | Glossary On
Versions: 1 2 3 4 5 6 7 8 9 10 11 12 13 14 15 16 17 18
000
FTUS46 KEKA 041127
TAFCEC
TAF
KCEC 041127Z 0412/0512 08004KT P6SM FEW050
     FM041500 36005KT P6SM SKC
     FM041900 32017G27KT P6SM SKC
     FM050300 34010KT P6SM SCT035=

USA.gov is the U.S. government's official web portal to all federal, state and local government web resources and services.